Time;durP1;ratioP1;P1;durP2;ratioP2;P2;SDS_P1;SDS_P2;PMS_P1;PMS_P2;Temp;Humidity;BMP_temperature;BMP_pressure;BME280_temperature;BME280_humidity;BME280_pressure;Samples;Min_cycle;Max_cycle;Signal;HPM_P1;HPM_P2
2022/03/26 00:01:42;;;;;;;63.23;27.13;;;5.20;97.30;;;;;;4991923;28;20628;-76
2022/03/26 00:04:08;;;;;;;68.70;27.10;;;5.20;97.30;;;;;;4992274;28;20495;-77
2022/03/26 00:06:33;;;;;;;71.57;26.80;;;5.20;97.30;;;;;;5008857;28;20746;-78
2022/03/26 00:08:59;;;;;;;71.80;27.83;;;5.10;97.30;;;;;;4994350;28;20189;-77
2022/03/26 00:11:24;;;;;;;59.50;23.80;;;5.10;97.30;;;;;;4992241;28;20216;-76
2022/03/26 00:13:50;;;;;;;66.53;27.90;;;5.10;97.30;;;;;;4993769;28;20244;-77
2022/03/26 00:16:16;;;;;;;63.53;25.20;;;5.00;97.30;;;;;;4993781;28;20519;-78
2022/03/26 00:18:41;;;;;;;61.77;26.20;;;5.00;97.30;;;;;;5007531;28;20186;-78
2022/03/26 00:21:07;;;;;;;65.07;24.93;;;5.00;97.30;;;;;;4992775;28;20193;-77
2022/03/26 00:23:33;;;;;;;75.80;28.10;;;5.00;97.30;;;;;;4992042;28;20202;-77
2022/03/26 00:26:00;;;;;;;59.73;25.30;;;5.00;97.30;;;;;;4992223;28;20461;-78
2022/03/26 00:28:26;;;;;;;72.60;26.50;;;4.90;97.30;;;;;;4993952;28;20182;-78
2022/03/26 00:30:52;;;;;;;66.73;27.10;;;4.90;97.30;;;;;;4992412;28;20811;-78
2022/03/26 00:33:18;;;;;;;64.43;28.13;;;4.80;97.30;;;;;;4993649;28;20829;-78
2022/03/26 00:35:46;;;;;;;67.40;28.40;;;4.80;97.30;;;;;;4992563;28;20413;-77
2022/03/26 00:38:11;;;;;;;78.30;26.17;;;4.70;97.30;;;;;;4993114;28;20417;-78
2022/03/26 00:40:37;;;;;;;64.43;24.60;;;4.70;97.30;;;;;;4992332;28;20429;-78
2022/03/26 00:43:03;;;;;;;66.43;26.80;;;4.70;97.30;;;;;;4992249;28;20497;-77
2022/03/26 00:45:29;;;;;;;70.60;27.57;;;4.70;97.30;;;;;;4991974;28;20182;-79
2022/03/26 00:47:59;;;;;;;61.13;27.07;;;4.70;97.30;;;;;;4990917;28;20857;-78
2022/03/26 00:50:25;;;;;;;71.63;28.20;;;4.70;97.30;;;;;;4991703;28;20915;-76
2022/03/26 00:52:51;;;;;;;66.53;29.23;;;4.70;97.30;;;;;;4991534;28;20465;-78
2022/03/26 00:55:17;;;;;;;70.90;29.07;;;4.60;97.30;;;;;;4992900;28;20544;-78
2022/03/26 00:57:43;;;;;;;63.47;27.30;;;4.60;97.30;;;;;;4991876;28;20651;-78
2022/03/26 01:00:10;;;;;;;68.63;27.20;;;4.60;97.30;;;;;;4991788;28;20496;-78
2022/03/26 01:02:36;;;;;;;76.23;28.03;;;4.60;97.30;;;;;;4975317;28;20953;-77
2022/03/26 01:05:04;;;;;;;68.60;26.70;;;4.60;97.30;;;;;;4991301;28;20469;-77
2022/03/26 01:07:30;;;;;;;55.17;25.03;;;4.60;97.30;;;;;;4991685;28;20453;-78
2022/03/26 01:09:57;;;;;;;62.67;27.93;;;4.50;97.30;;;;;;4991439;28;20417;-78
2022/03/26 01:12:24;;;;;;;69.40;27.37;;;4.50;97.30;;;;;;4991121;28;20455;-77
2022/03/26 01:14:51;;;;;;;78.50;26.47;;;4.40;97.30;;;;;;4991176;28;20432;-77
2022/03/26 01:17:18;;;;;;;65.00;28.63;;;4.40;97.30;;;;;;4995312;28;20420;-76
2022/03/26 01:19:45;;;;;;;69.23;28.23;;;4.40;97.30;;;;;;5010848;28;20419;-76
2022/03/26 01:22:11;;;;;;;65.23;28.60;;;4.30;97.30;;;;;;5010543;28;20481;-76
2022/03/26 01:24:37;;;;;;;59.20;25.37;;;4.30;97.30;;;;;;5010965;28;20927;-77
2022/03/26 01:27:03;;;;;;;67.63;27.33;;;4.30;97.30;;;;;;5010918;28;20416;-77
2022/03/26 01:29:29;;;;;;;61.27;26.43;;;4.30;97.30;;;;;;5011579;28;20408;-76
2022/03/26 01:31:55;;;;;;;64.87;25.67;;;4.30;97.30;;;;;;5010868;28;20542;-77
2022/03/26 01:34:26;;;;;;;58.60;24.97;;;4.30;97.30;;;;;;5010573;28;21026;-77
2022/03/26 01:36:52;;;;;;;58.67;25.10;;;4.20;97.30;;;;;;5012029;28;20546;-77
2022/03/26 01:39:20;;;;;;;59.27;25.07;;;4.20;97.30;;;;;;5004243;28;21813;-77
2022/03/26 01:41:46;;;;;;;61.80;24.73;;;4.20;97.30;;;;;;4991241;28;20452;-77
2022/03/26 01:44:13;;;;;;;73.80;24.70;;;4.10;97.30;;;;;;4992094;28;20460;-77
2022/03/26 01:46:53;;;;;;;66.30;25.50;;;4.10;97.30;;;;;;5007202;28;20421;-77
2022/03/26 01:49:19;;;;;;;67.13;25.70;;;4.10;97.30;;;;;;4991193;28;20768;-77
2022/03/26 01:51:45;;;;;;;58.67;24.53;;;4.20;97.30;;;;;;4990555;28;20459;-78
2022/03/26 01:54:12;;;;;;;70.03;26.20;;;4.10;97.30;;;;;;4991391;28;20469;-77
2022/03/26 01:56:38;;;;;;;56.43;24.97;;;4.10;97.30;;;;;;4999985;28;20409;-77
2022/03/26 01:59:08;;;;;;;57.63;24.83;;;4.00;97.30;;;;;;4993055;28;20423;-77
2022/03/26 02:01:34;;;;;;;67.17;24.70;;;4.00;97.30;;;;;;4996327;28;20419;-77
2022/03/26 02:04:01;;;;;;;63.80;25.23;;;4.00;97.30;;;;;;4994835;28;20444;-77
2022/03/26 02:06:34;;;;;;;60.73;25.00;;;4.00;97.30;;;;;;4995183;28;20417;-76
2022/03/26 02:09:08;;;;;;;66.97;24.73;;;4.00;97.30;;;;;;4995193;28;20423;-77
2022/03/26 02:11:36;;;;;;;55.63;24.13;;;4.00;97.30;;;;;;4995403;28;20554;-76
2022/03/26 02:14:03;;;;;;;61.10;26.87;;;4.00;97.30;;;;;;4995357;28;21135;-76
2022/03/26 02:16:31;;;;;;;57.60;24.53;;;4.00;97.30;;;;;;4995103;28;20926;-75
2022/03/26 02:18:57;;;;;;;60.37;25.27;;;3.90;97.30;;;;;;4995032;28;20421;-76
2022/03/26 02:21:24;;;;;;;64.10;25.83;;;3.80;97.30;;;;;;4995464;28;20417;-75
2022/03/26 02:23:51;;;;;;;57.93;24.40;;;3.80;97.30;;;;;;4994219;28;20448;-76
2022/03/26 02:26:22;;;;;;;61.47;25.03;;;3.80;97.30;;;;;;4994152;28;20428;-76
2022/03/26 02:28:49;;;;;;;69.57;28.40;;;3.70;97.30;;;;;;4994195;28;20416;-76
2022/03/26 02:31:15;;;;;;;76.50;30.70;;;3.60;97.30;;;;;;4994090;28;20456;-76
2022/03/26 02:33:42;;;;;;;77.57;28.90;;;3.50;97.30;;;;;;4994135;28;20435;-76
2022/03/26 02:36:09;;;;;;;64.33;26.37;;;3.40;97.30;;;;;;4994193;28;20447;-76
2022/03/26 02:38:36;;;;;;;62.47;25.63;;;3.40;97.30;;;;;;4995419;28;20424;-77
2022/03/26 02:41:02;;;;;;;69.77;25.50;;;3.40;97.30;;;;;;4995880;28;20490;-77
2022/03/26 02:43:28;;;;;;;73.47;27.90;;;3.40;97.30;;;;;;4995493;28;20506;-75
2022/03/26 02:45:53;;;;;;;61.80;25.47;;;3.40;97.30;;;;;;4993690;28;20173;-76
2022/03/26 02:48:19;;;;;;;59.57;24.77;;;3.50;97.30;;;;;;5003173;28;20667;-75
2022/03/26 02:50:45;;;;;;;73.63;26.73;;;3.50;97.30;;;;;;5014633;28;20255;-76
2022/03/26 02:53:12;;;;;;;65.67;24.27;;;3.50;97.30;;;;;;5014512;28;20233;-75
2022/03/26 02:55:38;;;;;;;64.37;26.90;;;3.30;97.30;;;;;;5014500;28;20445;-77
2022/03/26 02:58:05;;;;;;;59.33;25.50;;;3.30;97.30;;;;;;5006193;28;20413;-77
2022/03/26 03:00:30;;;;;;;70.30;26.17;;;3.30;97.30;;;;;;4993897;28;20429;-76
2022/03/26 03:02:56;;;;;;;65.43;25.07;;;3.30;97.30;;;;;;4995134;28;20448;-77
2022/03/26 03:05:22;;;;;;;68.57;25.50;;;3.30;97.30;;;;;;4995012;28;20232;-76
2022/03/26 03:07:48;;;;;;;75.40;26.40;;;3.40;97.30;;;;;;4993711;28;20632;-77
2022/03/26 03:10:15;;;;;;;60.47;23.20;;;3.30;97.30;;;;;;4994439;28;20390;-76
2022/03/26 03:12:45;;;;;;;65.43;26.57;;;3.30;97.30;;;;;;4993713;28;20499;-76
2022/03/26 03:15:11;;;;;;;68.07;24.60;;;3.20;97.30;;;;;;4993434;28;20420;-76
2022/03/26 03:17:39;;;;;;;53.77;23.90;;;3.10;97.30;;;;;;4993560;28;20877;-76
2022/03/26 03:20:09;;;;;;;64.97;25.40;;;3.10;97.30;;;;;;4994524;28;20443;-76
2022/03/26 03:22:35;;;;;;;59.53;24.57;;;3.10;97.30;;;;;;4993265;28;20809;-76
2022/03/26 03:25:01;;;;;;;65.30;25.57;;;3.10;97.30;;;;;;4993111;28;20946;-75
2022/03/26 03:27:27;;;;;;;64.77;22.87;;;3.10;97.30;;;;;;5009999;28;20421;-76
2022/03/26 03:29:53;;;;;;;73.53;26.77;;;3.10;97.30;;;;;;4993141;28;20421;-77
2022/03/26 03:32:18;;;;;;;67.67;24.03;;;3.10;97.30;;;;;;5009471;28;20232;-77
2022/03/26 03:34:44;;;;;;;69.63;26.40;;;3.10;97.30;;;;;;4993336;28;20213;-76
2022/03/26 03:37:10;;;;;;;66.77;26.10;;;3.10;97.30;;;;;;4994552;28;20640;-76
2022/03/26 03:39:36;;;;;;;76.47;26.73;;;3.10;97.30;;;;;;4993318;28;20180;-75
2022/03/26 03:42:02;;;;;;;56.30;25.57;;;3.00;97.30;;;;;;4992867;28;20529;-76
2022/03/26 03:44:28;;;;;;;66.17;25.10;;;3.00;97.30;;;;;;4994058;28;20448;-76
2022/03/26 03:46:53;;;;;;;61.33;24.73;;;3.00;97.30;;;;;;4993309;28;20178;-76
2022/03/26 03:49:19;;;;;;;63.20;24.80;;;3.10;97.30;;;;;;4992621;28;20497;-76
2022/03/26 03:51:45;;;;;;;56.80;25.33;;;3.00;97.30;;;;;;4994663;28;20189;-75
2022/03/26 03:54:11;;;;;;;57.37;23.50;;;3.00;97.30;;;;;;4992947;28;20428;-75
2022/03/26 03:56:38;;;;;;;69.17;25.40;;;3.00;97.30;;;;;;4992956;28;20428;-76
2022/03/26 03:59:03;;;;;;;64.47;25.13;;;3.00;97.30;;;;;;4993007;28;20496;-76
2022/03/26 04:01:29;;;;;;;58.33;25.00;;;3.10;97.30;;;;;;4993069;28;20457;-75
2022/03/26 04:03:54;;;;;;;68.03;24.10;;;3.10;97.30;;;;;;4992437;28;20774;-76
2022/03/26 04:06:20;;;;;;;61.90;24.60;;;3.10;97.30;;;;;;4994058;28;20220;-76
2022/03/26 04:08:46;;;;;;;56.23;22.97;;;3.00;97.30;;;;;;4993568;28;20185;-75
2022/03/26 04:11:11;;;;;;;57.53;24.67;;;3.00;97.30;;;;;;4992458;28;20245;-75
2022/03/26 04:13:37;;;;;;;67.57;26.77;;;3.00;97.30;;;;;;4992710;28;20224;-77
2022/03/26 04:16:03;;;;;;;55.73;24.40;;;2.90;97.30;;;;;;4992717;28;20182;-76
2022/03/26 04:18:28;;;;;;;58.63;24.37;;;2.90;97.30;;;;;;4992213;28;20265;-77
2022/03/26 04:20:54;;;;;;;58.90;24.03;;;2.90;97.30;;;;;;4993368;28;20444;-77
2022/03/26 04:23:24;;;;;;;57.53;24.17;;;2.90;97.30;;;;;;4992450;28;20194;-77
2022/03/26 04:25:49;;;;;;;67.57;23.73;;;2.90;97.30;;;;;;4992743;28;20860;-77
2022/03/26 04:28:15;;;;;;;62.40;23.50;;;2.80;97.30;;;;;;4993736;28;20499;-76
2022/03/26 04:30:41;;;;;;;68.50;23.77;;;2.70;97.30;;;;;;4993469;28;20185;-75
2022/03/26 04:33:07;;;;;;;61.53;22.80;;;2.70;97.30;;;;;;5008198;28;20906;-76
2022/03/26 04:35:33;;;;;;;67.03;25.70;;;2.70;97.30;;;;;;4993456;28;20173;-76
2022/03/26 04:38:00;;;;;;;62.37;22.50;;;2.70;97.30;;;;;;4993206;28;20448;-76
2022/03/26 04:40:27;;;;;;;63.37;24.37;;;2.70;97.30;;;;;;4991828;28;20429;-76
2022/03/26 04:42:53;;;;;;;62.20;24.43;;;2.70;97.30;;;;;;4991949;28;20965;-75
2022/03/26 04:45:18;;;;;;;59.33;23.37;;;2.60;97.30;;;;;;4993031;28;20414;-76
2022/03/26 04:47:44;;;;;;;63.83;25.00;;;2.50;97.30;;;;;;4991902;28;20532;-76
2022/03/26 04:50:11;;;;;;;59.23;24.30;;;2.50;97.30;;;;;;4992659;28;20644;-75
2022/03/26 04:52:37;;;;;;;65.77;22.63;;;2.40;97.30;;;;;;4991769;28;20677;-76
2022/03/26 04:55:04;;;;;;;64.93;22.73;;;2.50;97.30;;;;;;4991597;28;20431;-76
2022/03/26 04:57:29;;;;;;;60.50;22.87;;;2.60;97.30;;;;;;4992916;28;20186;-76
2022/03/26 04:59:55;;;;;;;58.00;22.80;;;2.70;97.30;;;;;;4991697;28;20426;-75
2022/03/26 05:02:21;;;;;;;63.17;23.50;;;2.80;97.30;;;;;;4991537;28;20192;-76
2022/03/26 05:04:47;;;;;;;67.97;23.00;;;2.80;97.30;;;;;;4992718;28;20461;-76
2022/03/26 05:09:56;;;;;;;64.10;25.10;;;2.80;97.30;;;;;;4993198;28;20253;-76
2022/03/26 05:12:22;;;;;;;54.00;21.07;;;2.80;97.30;;;;;;5007593;28;21189;-76
2022/03/26 05:14:48;;;;;;;63.40;22.63;;;2.80;97.30;;;;;;4992328;28;20643;-76
2022/03/26 05:17:13;;;;;;;62.20;21.07;;;2.80;97.30;;;;;;5007295;28;20499;-76
2022/03/26 05:19:39;;;;;;;64.93;22.40;;;2.80;97.30;;;;;;4990951;28;20181;-76
2022/03/26 05:22:05;;;;;;;58.37;24.23;;;2.90;97.30;;;;;;4991054;28;20240;-76
2022/03/26 05:24:32;;;;;;;59.87;23.73;;;2.90;97.30;;;;;;4992093;28;20248;-77
2022/03/26 05:26:58;;;;;;;55.00;20.70;;;2.90;97.30;;;;;;5007701;28;20181;-76
2022/03/26 05:29:23;;;;;;;59.43;21.90;;;2.90;97.30;;;;;;4992878;28;20413;-77
2022/03/26 05:31:49;;;;;;;60.50;20.60;;;2.90;97.30;;;;;;5007975;28;20201;-76
2022/03/26 05:34:14;;;;;;;60.80;24.10;;;2.90;97.30;;;;;;4992128;28;20722;-76
2022/03/26 05:36:40;;;;;;;48.40;20.47;;;2.90;97.30;;;;;;4992665;28;20229;-77
2022/03/26 05:39:06;;;;;;;54.37;21.13;;;2.90;97.30;;;;;;4991783;28;20181;-76
2022/03/26 05:41:32;;;;;;;66.13;24.87;;;2.90;97.30;;;;;;4991338;28;20174;-76
2022/03/26 05:43:59;;;;;;;62.00;21.17;;;2.90;97.30;;;;;;4992573;28;20569;-77
2022/03/26 05:46:25;;;;;;;67.83;23.30;;;3.00;97.30;;;;;;4991382;28;20491;-77
2022/03/26 05:48:50;;;;;;;72.17;26.50;;;3.10;97.30;;;;;;4991603;28;20417;-78
2022/03/26 05:51:16;;;;;;;62.23;22.90;;;3.20;97.30;;;;;;4991451;28;20460;-77
2022/03/26 05:53:41;;;;;;;53.17;21.97;;;3.30;97.30;;;;;;4991419;28;20288;-78
2022/03/26 05:56:07;;;;;;;67.43;23.77;;;3.40;97.30;;;;;;4992931;28;20177;-77
2022/03/26 05:58:34;;;;;;;62.30;20.50;;;3.50;97.30;;;;;;4991824;28;20174;-77
2022/03/26 06:01:00;;;;;;;52.90;22.30;;;3.60;97.30;;;;;;4991418;28;20177;-77
2022/03/26 06:03:25;;;;;;;55.27;20.20;;;3.70;97.30;;;;;;4991530;28;20444;-77
2022/03/26 06:05:51;;;;;;;71.07;23.93;;;3.70;97.30;;;;;;4991034;28;20300;-77
2022/03/26 06:08:17;;;;;;;66.57;22.00;;;3.80;97.30;;;;;;4991277;28;20548;-77
2022/03/26 06:10:43;;;;;;;60.43;21.50;;;3.90;97.30;;;;;;4990027;28;20538;-77
2022/03/26 06:13:08;;;;;;;57.37;24.40;;;4.00;97.30;;;;;;4990933;28;20475;-77
2022/03/26 06:15:34;;;;;;;75.37;24.70;;;4.10;97.30;;;;;;4991115;28;20209;-77
2022/03/26 06:18:01;;;;;;;61.70;21.47;;;4.20;97.30;;;;;;4990463;28;20272;-76
2022/03/26 06:20:27;;;;;;;59.40;20.97;;;4.30;97.30;;;;;;4990414;28;20635;-75
2022/03/26 06:22:53;;;;;;;62.57;21.63;;;4.40;97.30;;;;;;4990156;28;20452;-77
2022/03/26 06:25:20;;;;;;;64.77;24.73;;;4.50;97.30;;;;;;4989640;28;20174;-76
2022/03/26 06:27:47;;;;;;;67.93;22.77;;;4.60;97.30;;;;;;4991375;28;20184;-76
2022/03/26 06:30:13;;;;;;;67.40;22.13;;;4.70;97.30;;;;;;4990464;28;20425;-76
2022/03/26 06:32:39;;;;;;;60.37;21.40;;;4.90;97.30;;;;;;4990359;28;20464;-78
2022/03/26 06:35:05;;;;;;;68.47;23.27;;;5.00;97.30;;;;;;4992164;28;20174;-78
2022/03/26 06:37:30;;;;;;;58.30;21.03;;;5.20;97.30;;;;;;4991336;28;20182;-77
2022/03/26 06:39:56;;;;;;;61.93;22.50;;;5.30;97.30;;;;;;4990876;28;20428;-78
2022/03/26 06:42:22;;;;;;;60.00;22.90;;;5.40;97.30;;;;;;4990632;28;20244;-77
2022/03/26 06:44:48;;;;;;;59.73;22.00;;;5.60;97.30;;;;;;4990604;28;20805;-76
2022/03/26 06:47:14;;;;;;;63.23;23.30;;;5.70;97.30;;;;;;4994053;28;20941;-78
2022/03/26 06:49:41;;;;;;;52.53;22.63;;;5.80;97.30;;;;;;4990325;28;20182;-78
2022/03/26 06:52:07;;;;;;;55.83;21.63;;;5.90;97.30;;;;;;4989111;28;20270;-77
2022/03/26 06:54:33;;;;;;;57.50;20.20;;;6.10;97.30;;;;;;4994459;28;20437;-78
2022/03/26 06:56:59;;;;;;;68.10;23.83;;;6.20;97.30;;;;;;4975573;28;20426;-78
2022/03/26 06:59:25;;;;;;;59.57;22.53;;;6.40;97.30;;;;;;4991011;28;20194;-78
2022/03/26 07:01:50;;;;;;;61.03;20.63;;;6.50;97.30;;;;;;4985152;28;20194;-78
2022/03/26 07:04:16;;;;;;;61.70;20.63;;;6.70;97.30;;;;;;4993693;28;20475;-74
2022/03/26 07:06:42;;;;;;;52.23;21.90;;;6.80;97.30;;;;;;4994933;28;20824;-77
2022/03/26 07:09:08;;;;;;;61.13;22.60;;;7.00;97.30;;;;;;4993898;28;20177;-75
2022/03/26 07:11:33;;;;;;;53.50;21.87;;;7.10;97.30;;;;;;4994195;28;20217;-75
2022/03/26 07:13:59;;;;;;;60.07;21.80;;;7.30;97.30;;;;;;4995468;28;20269;-77
2022/03/26 07:16:24;;;;;;;57.93;22.17;;;7.40;97.30;;;;;;4994031;28;20178;-76
2022/03/26 07:18:50;;;;;;;55.70;20.33;;;7.50;97.30;;;;;;4994171;28;20174;-76
2022/03/26 07:21:15;;;;;;;55.20;21.00;;;7.70;97.30;;;;;;4993911;28;20174;-76
2022/03/26 07:23:41;;;;;;;53.93;20.10;;;7.80;97.30;;;;;;4993970;28;20190;-76
2022/03/26 07:26:07;;;;;;;58.57;22.07;;;7.90;97.30;;;;;;4993185;28;20182;-77
2022/03/26 07:28:32;;;;;;;59.97;22.20;;;8.10;97.30;;;;;;4993804;28;20560;-76
2022/03/26 07:30:58;;;;;;;68.23;21.53;;;8.20;97.00;;;;;;4993352;28;20174;-77
2022/03/26 07:33:23;;;;;;;56.73;20.87;;;8.30;97.00;;;;;;4994568;28;20214;-76
2022/03/26 07:35:49;;;;;;;69.77;22.60;;;8.50;96.90;;;;;;4992911;28;20178;-75
2022/03/26 07:38:15;;;;;;;59.83;21.73;;;8.60;96.20;;;;;;4974177;28;20179;-77
2022/03/26 07:40:40;;;;;;;51.83;21.17;;;8.70;95.70;;;;;;4973985;28;20178;-77
2022/03/26 07:43:07;;;;;;;52.10;19.67;;;8.80;95.30;;;;;;4973950;28;20198;-77
2022/03/26 07:45:33;;;;;;;52.90;22.30;;;8.90;95.40;;;;;;4974139;28;20640;-77
2022/03/26 07:47:59;;;;;;;53.53;20.57;;;9.10;94.90;;;;;;4977322;28;20491;-75
2022/03/26 07:50:25;;;;;;;52.90;22.37;;;9.20;94.70;;;;;;4992080;28;20456;-76
2022/03/26 07:52:51;;;;;;;63.37;22.50;;;9.30;94.70;;;;;;4973813;28;20811;-76
2022/03/26 07:55:17;;;;;;;65.70;22.23;;;9.50;94.40;;;;;;4974158;28;20414;-76
2022/03/26 07:57:42;;;;;;;60.37;22.90;;;9.70;93.70;;;;;;4991256;28;20244;-77
2022/03/26 08:00:09;;;;;;;64.07;22.83;;;9.80;93.40;;;;;;4994257;28;20436;-76
2022/03/26 08:02:34;;;;;;;63.73;23.00;;;10.00;93.10;;;;;;4992753;28;20434;-79
2022/03/26 08:05:00;;;;;;;62.37;22.07;;;10.10;92.70;;;;;;4992639;28;20509;-76
2022/03/26 08:07:27;;;;;;;62.57;23.10;;;10.30;92.60;;;;;;4992458;28;20695;-77
2022/03/26 08:09:52;;;;;;;57.93;20.23;;;10.30;91.80;;;;;;4994085;28;20216;-77
2022/03/26 08:12:18;;;;;;;67.50;22.27;;;10.30;91.40;;;;;;4993427;28;20962;-77
2022/03/26 08:14:44;;;;;;;67.17;23.57;;;10.30;91.20;;;;;;4993463;28;20247;-77
2022/03/26 08:17:09;;;;;;;56.13;21.90;;;10.30;91.30;;;;;;4994918;28;20582;-77
2022/03/26 08:19:36;;;;;;;64.87;22.30;;;10.40;91.20;;;;;;4994675;28;20186;-77
2022/03/26 08:22:02;;;;;;;64.70;21.97;;;10.40;91.20;;;;;;4993568;28;20288;-77
2022/03/26 08:24:28;;;;;;;54.90;21.17;;;10.50;91.60;;;;;;4992646;28;20476;-77
2022/03/26 08:27:07;;;;;;;63.97;23.97;;;10.60;91.30;;;;;;4993261;28;20453;-77
2022/03/26 08:29:33;;;;;;;64.77;23.03;;;10.80;91.40;;;;;;4977139;28;20670;-77
2022/03/26 08:32:02;;;;;;;71.33;24.20;;;11.00;91.10;;;;;;4992858;28;20457;-77
2022/03/26 08:34:27;;;;;;;57.03;21.17;;;11.20;90.70;;;;;;4993266;28;20198;-78
2022/03/26 08:36:53;;;;;;;72.50;24.70;;;11.30;90.70;;;;;;4993362;28;20424;-77
2022/03/26 08:39:19;;;;;;;61.80;22.77;;;11.50;90.40;;;;;;4993318;28;20586;-78
2022/03/26 08:41:45;;;;;;;63.03;22.80;;;11.70;89.60;;;;;;4994610;28;20220;-78
2022/03/26 08:44:11;;;;;;;66.03;23.20;;;11.70;89.40;;;;;;4993082;28;20659;-78
2022/03/26 08:46:37;;;;;;;61.03;22.63;;;11.90;89.20;;;;;;4994115;28;20424;-78
2022/03/26 08:49:02;;;;;;;72.00;24.90;;;12.00;89.10;;;;;;4992959;28;20185;-77
2022/03/26 08:51:28;;;;;;;64.03;20.30;;;12.20;88.80;;;;;;4993379;28;20201;-78
2022/03/26 08:53:53;;;;;;;50.37;19.90;;;12.30;88.80;;;;;;4992362;28;20568;-77
2022/03/26 08:56:19;;;;;;;54.90;19.00;;;12.50;88.30;;;;;;4993160;28;20293;-77
2022/03/26 08:58:45;;;;;;;61.47;21.60;;;12.60;88.70;;;;;;4992831;28;20652;-78
2022/03/26 09:01:11;;;;;;;60.17;20.57;;;12.70;88.50;;;;;;4993050;28;20640;-79
2022/03/26 09:03:40;;;;;;;56.83;20.80;;;12.90;88.90;;;;;;4994019;28;20235;-78
2022/03/26 09:06:07;;;;;;;49.97;19.33;;;13.00;88.50;;;;;;4992939;28;20974;-79
2022/03/26 09:08:34;;;;;;;52.43;20.00;;;13.10;88.30;;;;;;4992384;28;20425;-79
2022/03/26 09:10:59;;;;;;;61.33;21.27;;;13.20;88.50;;;;;;4992690;28;20412;-78
2022/03/26 09:13:25;;;;;;;53.23;18.80;;;13.30;88.50;;;;;;4992545;28;20835;-78
2022/03/26 09:15:51;;;;;;;49.50;17.50;;;13.40;88.40;;;;;;4992653;28;20174;-78
2022/03/26 09:18:17;;;;;;;51.57;19.80;;;13.60;88.80;;;;;;4992608;28;20428;-79
2022/03/26 09:20:42;;;;;;;53.40;20.20;;;13.70;87.90;;;;;;4992624;28;20173;-78
2022/03/26 09:23:08;;;;;;;49.87;19.10;;;13.90;87.60;;;;;;4993848;28;20221;-78
2022/03/26 09:25:37;;;;;;;52.80;19.53;;;13.90;87.30;;;;;;4992930;28;20178;-77
2022/03/26 09:28:03;;;;;;;47.97;19.23;;;14.00;87.50;;;;;;4992556;28;20212;-78
2022/03/26 09:30:31;;;;;;;40.00;16.60;;;14.10;87.50;;;;;;4992577;28;20412;-77
2022/03/26 09:32:57;;;;;;;41.47;16.90;;;14.20;87.80;;;;;;4992289;28;20461;-77
2022/03/26 09:35:23;;;;;;;43.37;15.90;;;14.30;87.20;;;;;;4993755;28;20784;-78
2022/03/26 09:37:48;;;;;;;53.03;18.30;;;14.40;87.30;;;;;;4992395;28;20413;-79
2022/03/26 09:40:14;;;;;;;39.47;16.80;;;14.50;86.60;;;;;;4993674;28;20603;-77
2022/03/26 09:42:40;;;;;;;40.47;16.57;;;14.60;86.40;;;;;;4992410;28;20726;-78
2022/03/26 09:45:08;;;;;;;39.83;16.50;;;14.60;86.20;;;;;;4992383;28;20560;-79
2022/03/26 09:47:35;;;;;;;39.30;15.30;;;14.80;86.60;;;;;;4992723;28;20471;-78
2022/03/26 09:50:02;;;;;;;35.80;15.70;;;14.90;86.60;;;;;;4993496;28;20416;-79
2022/03/26 09:52:27;;;;;;;42.80;15.77;;;14.80;85.80;;;;;;4992643;28;20456;-79
2022/03/26 09:54:56;;;;;;;39.63;16.40;;;14.90;86.10;;;;;;4992794;28;20477;-79
2022/03/26 09:57:21;;;;;;;42.93;16.57;;;15.00;86.50;;;;;;4992587;28;20211;-79
2022/03/26 09:59:47;;;;;;;33.37;15.60;;;15.10;85.90;;;;;;4992266;28;20409;-78
2022/03/26 10:02:12;;;;;;;40.70;16.53;;;15.20;85.30;;;;;;4992221;28;20193;-78
2022/03/26 10:04:40;;;;;;;39.13;16.40;;;15.30;85.50;;;;;;4993218;28;20304;-81
2022/03/26 10:07:07;;;;;;;43.03;16.90;;;15.40;84.70;;;;;;4994162;28;20189;-79
2022/03/26 10:09:44;;;;;;;37.10;16.80;;;15.30;84.70;;;;;;4992799;28;20431;-79
2022/03/26 10:12:16;;;;;;;43.90;16.10;;;15.40;85.10;;;;;;4992001;28;20476;-79
2022/03/26 10:14:59;;;;;;;32.70;13.70;;;15.50;85.00;;;;;;4991975;28;20510;-79
2022/03/26 10:17:27;;;;;;;33.53;14.90;;;15.60;84.10;;;;;;4991957;28;20883;-78
2022/03/26 10:19:58;;;;;;;38.30;15.10;;;15.70;84.30;;;;;;4993740;28;20416;-78
2022/03/26 10:22:25;;;;;;;33.20;14.70;;;15.80;84.30;;;;;;4996234;28;20808;-78
2022/03/26 10:24:50;;;;;;;30.53;14.90;;;16.00;83.90;;;;;;4995232;28;20648;-79
2022/03/26 10:27:17;;;;;;;29.83;13.17;;;16.10;83.70;;;;;;4995155;28;20452;-79
2022/03/26 10:29:54;;;;;;;29.53;13.43;;;16.20;82.90;;;;;;4994983;28;20547;-79
2022/03/26 10:32:45;;;;;;;27.47;13.07;;;16.20;83.00;;;;;;4994447;28;21025;-80
2022/03/26 10:35:18;;;;;;;24.60;12.70;;;16.30;83.30;;;;;;4994487;28;20544;-78
2022/03/26 10:37:44;;;;;;;19.90;10.60;;;16.40;82.80;;;;;;4994063;28;20482;-79
2022/03/26 10:40:37;;;;;;;21.33;11.07;;;16.60;82.30;;;;;;4993908;28;20417;-79
2022/03/26 10:43:11;;;;;;;18.93;11.40;;;16.80;82.10;;;;;;4995983;28;20441;-80
2022/03/26 10:45:46;;;;;;;18.17;9.57;;;16.80;81.80;;;;;;4994890;28;20524;-80
2022/03/26 10:48:12;;;;;;;23.60;9.60;;;16.90;81.80;;;;;;4995206;28;20427;-80
2022/03/26 10:50:39;;;;;;;22.07;9.20;;;16.80;81.00;;;;;;4995708;28;20507;-81
2022/03/26 10:53:10;;;;;;;20.53;10.70;;;16.80;81.00;;;;;;4996450;28;20891;-79
2022/03/26 10:55:39;;;;;;;14.70;8.97;;;16.70;80.80;;;;;;4995681;28;20421;-79
2022/03/26 10:58:05;;;;;;;20.33;9.77;;;16.60;81.10;;;;;;4997329;28;20436;-81
2022/03/26 11:00:31;;;;;;;25.17;11.23;;;16.60;80.90;;;;;;4998290;28;20417;-81
2022/03/26 11:02:57;;;;;;;21.10;10.23;;;16.70;81.40;;;;;;4997586;28;20465;-80
2022/03/26 11:05:23;;;;;;;22.17;9.87;;;16.70;80.80;;;;;;4996576;28;20836;-81
2022/03/26 11:07:50;;;;;;;14.00;8.00;;;16.80;81.20;;;;;;4996233;28;20182;-81
2022/03/26 11:10:16;;;;;;;14.43;7.40;;;16.80;80.20;;;;;;4997683;28;20524;-81
2022/03/26 11:12:45;;;;;;;18.37;8.47;;;16.80;79.70;;;;;;4998153;28;20484;-80
2022/03/26 11:15:21;;;;;;;16.37;7.30;;;16.90;81.20;;;;;;4997388;28;20256;-80
2022/03/26 11:18:14;;;;;;;12.63;6.83;;;17.00;79.80;;;;;;4998743;28;20469;-80
2022/03/26 11:21:01;;;;;;;18.87;9.00;;;17.10;79.90;;;;;;4999444;28;20819;-80
2022/03/26 11:23:54;;;;;;;14.60;7.77;;;17.20;80.60;;;;;;4998257;28;20461;-82
2022/03/26 11:26:33;;;;;;;15.00;7.20;;;17.20;79.40;;;;;;4979535;28;20434;-80
2022/03/26 11:29:17;;;;;;;14.50;8.87;;;17.30;80.40;;;;;;4990542;28;20417;-80
2022/03/26 11:32:08;;;;;;;17.20;8.17;;;17.30;78.90;;;;;;4992207;28;20457;-80
2022/03/26 11:34:38;;;;;;;17.47;9.30;;;17.40;78.90;;;;;;4976488;28;20442;-81
2022/03/26 11:37:20;;;;;;;19.13;9.27;;;17.40;78.60;;;;;;5010896;28;20425;-81
2022/03/26 11:39:47;;;;;;;18.77;8.93;;;17.50;79.10;;;;;;5000213;28;20409;-84
2022/03/26 11:42:13;;;;;;;23.83;9.93;;;17.40;78.60;;;;;;4994413;28;20429;-84
2022/03/26 11:50:41;;;;;;;14.23;7.80;;;17.40;78.80;;;;;;4995291;28;20461;-84
2022/03/26 11:53:37;;;;;;;13.87;7.57;;;17.70;77.70;;;;;;4975855;28;20478;-85
2022/03/26 11:56:04;;;;;;;15.50;8.53;;;17.80;77.90;;;;;;4973447;28;20433;-83
2022/03/26 11:58:30;;;;;;;16.47;7.73;;;17.90;77.70;;;;;;4977448;28;20948;-83
2022/03/26 12:01:02;;;;;;;20.17;8.77;;;18.00;77.50;;;;;;4978690;28;20877;-84
2022/03/26 12:03:50;;;;;;;16.40;8.73;;;18.10;76.60;;;;;;4988470;28;20976;-84
2022/03/26 12:06:37;;;;;;;18.40;9.33;;;18.30;77.90;;;;;;4981456;28;20510;-83
2022/03/26 12:09:03;;;;;;;16.87;8.70;;;18.30;76.70;;;;;;4983721;28;20429;-83
2022/03/26 12:11:33;;;;;;;17.73;8.90;;;18.20;76.10;;;;;;4995586;28;20421;-84
2022/03/26 12:14:05;;;;;;;16.17;7.87;;;18.20;76.20;;;;;;4995645;28;20592;-83
2022/03/26 12:16:53;;;;;;;17.53;9.50;;;18.10;76.70;;;;;;4999800;28;20421;-83
2022/03/26 12:19:38;;;;;;;16.27;8.97;;;18.40;77.40;;;;;;4996474;28;20497;-84
2022/03/26 12:22:23;;;;;;;16.50;9.40;;;18.40;76.00;;;;;;4980948;28;20410;-84
2022/03/26 12:24:49;;;;;;;18.60;9.50;;;18.50;76.30;;;;;;4988605;28;20471;-84
2022/03/26 12:27:16;;;;;;;22.47;9.93;;;18.60;76.20;;;;;;5000010;28;21144;-84
2022/03/26 12:29:42;;;;;;;16.60;8.43;;;18.60;76.30;;;;;;5015779;28;20459;-84
2022/03/26 12:32:08;;;;;;;14.53;8.10;;;18.80;76.80;;;;;;4990600;28;20461;-82
2022/03/26 12:34:34;;;;;;;11.03;5.80;;;18.70;75.10;;;;;;4992715;28;20259;-83
2022/03/26 12:37:03;;;;;;;12.90;6.00;;;18.50;73.90;;;;;;4979869;28;20442;-83
2022/03/26 12:39:29;;;;;;;13.77;5.87;;;18.60;73.70;;;;;;4990853;28;20232;-83
2022/03/26 12:41:56;;;;;;;10.87;6.03;;;18.70;74.50;;;;;;4998754;28;20508;-83
2022/03/26 12:44:22;;;;;;;15.30;7.60;;;18.90;74.20;;;;;;4998003;28;20451;-83
2022/03/26 12:46:49;;;;;;;9.43;6.00;;;19.20;73.90;;;;;;4995123;28;20433;-83